KMWL/MWL METAR and TAF weather

Enter ICAO airport designator
Station Type Date Time Source
KMWL METAR 2019/06/17 14:53 UTC NOAA

KMWL 171453Z AUTO 31005KT 10SM CLR 23/19 A2994 RMK AO2 SLP127 T02330189 53016


Station Type Date Time Source
KMWL Decoded METAR 2019/06/17 14:53 UTC NOAA

MINERAL WELLS AIRPORT, TX, United States (KMWL) 32-47N 098-04W 284M
Jun 17, 2019 - 10:53 AM EDT / 2019.06.17 1453 UTC
Wind: from the NW (310 degrees) at 6 MPH (5 KT):0
Visibility: 10 mile(s):0
Sky conditions: clear
Temperature: 73.9 F (23.3 C)
Dew Point: 66.0 F (18.9 C)
Relative Humidity: 76%
Pressure (altimeter): 29.94 in. Hg (1013 hPa)
Pressure tendency: 0.05 inches (1.6 hPa) higher than three hours ago
ob: KMWL 171453Z AUTO 31005KT 10SM CLR 23/19 A2994 RMK AO2 SLP127 T02330189 53016
cycle: 15

Station Type Date Time Source
KMWL TAF UTC NOAA

Error!

Example: see airport list